sensor_id;sensor_type;location;lat;lon;timestamp;P1;durP1;ratioP1;P2;durP2;ratioP2
3865;SDS011;1948;53.250;10.412;2023-03-30T00:01:14;29.43;;;21.37;;
3865;SDS011;1948;53.250;10.412;2023-03-30T00:03:44;39.80;;;22.70;;
3865;SDS011;1948;53.250;10.412;2023-03-30T00:06:15;32.90;;;22.10;;
3865;SDS011;1948;53.250;10.412;2023-03-30T00:08:53;31.90;;;20.97;;
3865;SDS011;1948;53.250;10.412;2023-03-30T00:11:26;39.27;;;22.83;;
3865;SDS011;1948;53.250;10.412;2023-03-30T00:13:59;30.63;;;22.47;;
3865;SDS011;1948;53.250;10.412;2023-03-30T00:16:27;29.83;;;22.03;;
3865;SDS011;1948;53.250;10.412;2023-03-30T00:18:56;28.57;;;21.50;;
3865;SDS011;1948;53.250;10.412;2023-03-30T00:21:24;39.80;;;23.60;;
3865;SDS011;1948;53.250;10.412;2023-03-30T00:23:53;34.40;;;23.57;;
3865;SDS011;1948;53.250;10.412;2023-03-30T00:26:22;30.90;;;22.73;;
3865;SDS011;1948;53.250;10.412;2023-03-30T00:28:49;35.93;;;23.73;;
3865;SDS011;1948;53.250;10.412;2023-03-30T00:31:17;41.47;;;23.50;;
3865;SDS011;1948;53.250;10.412;2023-03-30T00:33:45;40.03;;;23.53;;
3865;SDS011;1948;53.250;10.412;2023-03-30T00:36:13;35.00;;;23.70;;
3865;SDS011;1948;53.250;10.412;2023-03-30T00:38:42;38.20;;;23.20;;
3865;SDS011;1948;53.250;10.412;2023-03-30T00:41:14;32.60;;;23.20;;
3865;SDS011;1948;53.250;10.412;2023-03-30T00:47:17;29.10;;;21.60;;
3865;SDS011;1948;53.250;10.412;2023-03-30T00:49:44;32.10;;;22.47;;
3865;SDS011;1948;53.250;10.412;2023-03-30T00:52:12;35.67;;;21.97;;
3865;SDS011;1948;53.250;10.412;2023-03-30T00:54:44;34.77;;;22.90;;
3865;SDS011;1948;53.250;10.412;2023-03-30T00:57:12;32.70;;;21.97;;
3865;SDS011;1948;53.250;10.412;2023-03-30T00:59:42;41.50;;;22.70;;
3865;SDS011;1948;53.250;10.412;2023-03-30T01:02:10;33.50;;;22.63;;
3865;SDS011;1948;53.250;10.412;2023-03-30T01:04:40;36.50;;;23.93;;
3865;SDS011;1948;53.250;10.412;2023-03-30T01:07:11;29.47;;;21.40;;
3865;SDS011;1948;53.250;10.412;2023-03-30T01:09:39;32.10;;;22.53;;
3865;SDS011;1948;53.250;10.412;2023-03-30T01:12:08;40.83;;;22.77;;
3865;SDS011;1948;53.250;10.412;2023-03-30T01:14:36;30.93;;;22.23;;
3865;SDS011;1948;53.250;10.412;2023-03-30T01:28:45;33.40;;;21.67;;
3865;SDS011;1948;53.250;10.412;2023-03-30T01:31:40;36.50;;;22.77;;
3865;SDS011;1948;53.250;10.412;2023-03-30T01:37:16;31.73;;;21.87;;
3865;SDS011;1948;53.250;10.412;2023-03-30T01:42:54;32.53;;;22.43;;
3865;SDS011;1948;53.250;10.412;2023-03-30T01:45:29;32.40;;;23.10;;
3865;SDS011;1948;53.250;10.412;2023-03-30T01:51:05;37.30;;;22.37;;
3865;SDS011;1948;53.250;10.412;2023-03-30T01:53:40;36.27;;;22.30;;
3865;SDS011;1948;53.250;10.412;2023-03-30T01:59:29;35.20;;;22.27;;
3865;SDS011;1948;53.250;10.412;2023-03-30T02:02:02;38.73;;;21.80;;
3865;SDS011;1948;53.250;10.412;2023-03-30T02:04:33;37.70;;;24.00;;
3865;SDS011;1948;53.250;10.412;2023-03-30T02:07:14;47.03;;;23.80;;
3865;SDS011;1948;53.250;10.412;2023-03-30T02:09:49;32.83;;;23.53;;
3865;SDS011;1948;53.250;10.412;2023-03-30T02:12:20;43.57;;;23.00;;
3865;SDS011;1948;53.250;10.412;2023-03-30T02:14:48;37.10;;;21.90;;
3865;SDS011;1948;53.250;10.412;2023-03-30T02:17:19;40.20;;;23.20;;
3865;SDS011;1948;53.250;10.412;2023-03-30T02:19:52;41.00;;;24.03;;
3865;SDS011;1948;53.250;10.412;2023-03-30T02:22:25;36.97;;;23.90;;
3865;SDS011;1948;53.250;10.412;2023-03-30T02:24:56;37.10;;;24.03;;
3865;SDS011;1948;53.250;10.412;2023-03-30T02:27:24;33.93;;;23.57;;
3865;SDS011;1948;53.250;10.412;2023-03-30T02:29:52;43.50;;;25.07;;
3865;SDS011;1948;53.250;10.412;2023-03-30T02:32:26;36.93;;;23.70;;
3865;SDS011;1948;53.250;10.412;2023-03-30T02:52:43;31.00;;;23.33;;
3865;SDS011;1948;53.250;10.412;2023-03-30T02:58:18;31.23;;;21.20;;
3865;SDS011;1948;53.250;10.412;2023-03-30T03:01:31;30.97;;;21.27;;
3865;SDS011;1948;53.250;10.412;2023-03-30T03:04:13;28.77;;;19.30;;
3865;SDS011;1948;53.250;10.412;2023-03-30T03:06:40;27.30;;;20.50;;
3865;SDS011;1948;53.250;10.412;2023-03-30T03:09:08;29.03;;;21.10;;
3865;SDS011;1948;53.250;10.412;2023-03-30T03:11:35;30.17;;;20.17;;
3865;SDS011;1948;53.250;10.412;2023-03-30T03:14:02;31.23;;;20.37;;
3865;SDS011;1948;53.250;10.412;2023-03-30T03:16:29;32.63;;;20.47;;
3865;SDS011;1948;53.250;10.412;2023-03-30T03:19:02;24.63;;;18.83;;
3865;SDS011;1948;53.250;10.412;2023-03-30T03:21:29;29.33;;;18.97;;
3865;SDS011;1948;53.250;10.412;2023-03-30T03:23:56;29.97;;;18.47;;
3865;SDS011;1948;53.250;10.412;2023-03-30T03:26:23;24.53;;;18.13;;
3865;SDS011;1948;53.250;10.412;2023-03-30T03:28:52;29.73;;;19.47;;
3865;SDS011;1948;53.250;10.412;2023-03-30T03:31:19;27.97;;;17.80;;
3865;SDS011;1948;53.250;10.412;2023-03-30T03:33:47;25.40;;;18.67;;
3865;SDS011;1948;53.250;10.412;2023-03-30T03:36:18;23.40;;;18.40;;
3865;SDS011;1948;53.250;10.412;2023-03-30T03:38:50;36.07;;;18.10;;
3865;SDS011;1948;53.250;10.412;2023-03-30T03:41:17;20.50;;;16.33;;
3865;SDS011;1948;53.250;10.412;2023-03-30T03:43:49;29.80;;;18.33;;
3865;SDS011;1948;53.250;10.412;2023-03-30T03:46:18;25.93;;;18.43;;
3865;SDS011;1948;53.250;10.412;2023-03-30T03:48:46;29.90;;;18.37;;
3865;SDS011;1948;53.250;10.412;2023-03-30T03:51:15;22.83;;;17.60;;
3865;SDS011;1948;53.250;10.412;2023-03-30T03:53:42;24.03;;;16.73;;
3865;SDS011;1948;53.250;10.412;2023-03-30T03:56:11;29.17;;;17.10;;
3865;SDS011;1948;53.250;10.412;2023-03-30T03:58:40;27.33;;;17.57;;
3865;SDS011;1948;53.250;10.412;2023-03-30T04:01:11;26.60;;;18.37;;
3865;SDS011;1948;53.250;10.412;2023-03-30T04:03:39;24.97;;;17.60;;
3865;SDS011;1948;53.250;10.412;2023-03-30T04:06:11;33.07;;;18.83;;
3865;SDS011;1948;53.250;10.412;2023-03-30T04:08:41;32.33;;;17.83;;
3865;SDS011;1948;53.250;10.412;2023-03-30T04:11:13;22.93;;;17.90;;
3865;SDS011;1948;53.250;10.412;2023-03-30T04:13:42;26.03;;;18.27;;
3865;SDS011;1948;53.250;10.412;2023-03-30T04:16:13;32.17;;;17.40;;
3865;SDS011;1948;53.250;10.412;2023-03-30T04:18:40;28.40;;;19.00;;
3865;SDS011;1948;53.250;10.412;2023-03-30T04:21:08;23.60;;;17.57;;
3865;SDS011;1948;53.250;10.412;2023-03-30T04:23:38;25.30;;;17.60;;
3865;SDS011;1948;53.250;10.412;2023-03-30T04:26:10;25.70;;;17.13;;
3865;SDS011;1948;53.250;10.412;2023-03-30T04:28:41;27.07;;;17.90;;
3865;SDS011;1948;53.250;10.412;2023-03-30T04:31:08;32.20;;;19.30;;
3865;SDS011;1948;53.250;10.412;2023-03-30T04:33:36;27.30;;;18.97;;
3865;SDS011;1948;53.250;10.412;2023-03-30T04:36:18;25.63;;;18.07;;
3865;SDS011;1948;53.250;10.412;2023-03-30T04:38:46;29.80;;;18.50;;
3865;SDS011;1948;53.250;10.412;2023-03-30T04:41:26;29.03;;;18.03;;
3865;SDS011;1948;53.250;10.412;2023-03-30T04:43:59;31.87;;;19.10;;
3865;SDS011;1948;53.250;10.412;2023-03-30T04:46:32;34.93;;;19.33;;
3865;SDS011;1948;53.250;10.412;2023-03-30T04:48:59;31.13;;;19.37;;
3865;SDS011;1948;53.250;10.412;2023-03-30T04:51:29;25.63;;;18.70;;
3865;SDS011;1948;53.250;10.412;2023-03-30T04:53:56;28.50;;;19.70;;
3865;SDS011;1948;53.250;10.412;2023-03-30T04:56:24;21.93;;;17.47;;
3865;SDS011;1948;53.250;10.412;2023-03-30T04:58:53;28.30;;;18.40;;
3865;SDS011;1948;53.250;10.412;2023-03-30T05:01:21;32.43;;;18.77;;
3865;SDS011;1948;53.250;10.412;2023-03-30T05:03:48;28.17;;;18.80;;
3865;SDS011;1948;53.250;10.412;2023-03-30T05:06:17;22.70;;;18.43;;
3865;SDS011;1948;53.250;10.412;2023-03-30T05:08:47;29.80;;;17.30;;
3865;SDS011;1948;53.250;10.412;2023-03-30T05:11:14;31.63;;;18.30;;
3865;SDS011;1948;53.250;10.412;2023-03-30T05:13:41;23.13;;;17.93;;
3865;SDS011;1948;53.250;10.412;2023-03-30T05:16:08;30.47;;;18.37;;
3865;SDS011;1948;53.250;10.412;2023-03-30T05:18:35;24.73;;;18.13;;
3865;SDS011;1948;53.250;10.412;2023-03-30T05:21:04;30.53;;;18.07;;
3865;SDS011;1948;53.250;10.412;2023-03-30T05:23:32;22.30;;;17.10;;
3865;SDS011;1948;53.250;10.412;2023-03-30T05:25:59;22.60;;;16.60;;
3865;SDS011;1948;53.250;10.412;2023-03-30T05:28:30;25.47;;;16.70;;
3865;SDS011;1948;53.250;10.412;2023-03-30T05:30:58;24.70;;;16.17;;
3865;SDS011;1948;53.250;10.412;2023-03-30T05:33:25;22.00;;;14.33;;
3865;SDS011;1948;53.250;10.412;2023-03-30T05:35:55;23.27;;;15.53;;
3865;SDS011;1948;53.250;10.412;2023-03-30T05:38:22;22.30;;;15.30;;
3865;SDS011;1948;53.250;10.412;2023-03-30T05:40:52;22.60;;;15.47;;
3865;SDS011;1948;53.250;10.412;2023-03-30T05:43:20;20.63;;;13.90;;
3865;SDS011;1948;53.250;10.412;2023-03-30T05:45:47;19.77;;;14.80;;
3865;SDS011;1948;53.250;10.412;2023-03-30T05:48:16;17.70;;;14.40;;
3865;SDS011;1948;53.250;10.412;2023-03-30T05:50:46;21.47;;;14.40;;
3865;SDS011;1948;53.250;10.412;2023-03-30T05:53:14;19.67;;;13.33;;
3865;SDS011;1948;53.250;10.412;2023-03-30T05:55:45;30.17;;;13.50;;
3865;SDS011;1948;53.250;10.412;2023-03-30T05:58:14;15.67;;;12.53;;
3865;SDS011;1948;53.250;10.412;2023-03-30T06:00:42;16.10;;;12.47;;
3865;SDS011;1948;53.250;10.412;2023-03-30T06:03:10;12.97;;;11.57;;
3865;SDS011;1948;53.250;10.412;2023-03-30T06:05:38;15.70;;;11.90;;
3865;SDS011;1948;53.250;10.412;2023-03-30T06:08:09;19.17;;;11.87;;
3865;SDS011;1948;53.250;10.412;2023-03-30T06:10:37;10.93;;;9.83;;
3865;SDS011;1948;53.250;10.412;2023-03-30T06:13:04;25.37;;;10.60;;
3865;SDS011;1948;53.250;10.412;2023-03-30T06:15:34;15.57;;;10.53;;
3865;SDS011;1948;53.250;10.412;2023-03-30T06:18:03;13.23;;;10.00;;
3865;SDS011;1948;53.250;10.412;2023-03-30T06:20:35;14.17;;;9.13;;
3865;SDS011;1948;53.250;10.412;2023-03-30T06:23:04;17.10;;;9.33;;
3865;SDS011;1948;53.250;10.412;2023-03-30T06:25:31;11.17;;;9.07;;
3865;SDS011;1948;53.250;10.412;2023-03-30T06:27:58;14.03;;;9.17;;
3865;SDS011;1948;53.250;10.412;2023-03-30T06:30:28;11.80;;;8.90;;
3865;SDS011;1948;53.250;10.412;2023-03-30T06:32:55;11.63;;;9.10;;
3865;SDS011;1948;53.250;10.412;2023-03-30T06:35:25;11.50;;;8.17;;
3865;SDS011;1948;53.250;10.412;2023-03-30T06:37:52;20.13;;;9.20;;
3865;SDS011;1948;53.250;10.412;2023-03-30T06:40:21;10.93;;;7.93;;
3865;SDS011;1948;53.250;10.412;2023-03-30T06:42:49;12.77;;;8.93;;
3865;SDS011;1948;53.250;10.412;2023-03-30T06:45:18;13.13;;;8.10;;
3865;SDS011;1948;53.250;10.412;2023-03-30T06:47:48;10.43;;;7.73;;
3865;SDS011;1948;53.250;10.412;2023-03-30T06:50:15;20.40;;;8.47;;
3865;SDS011;1948;53.250;10.412;2023-03-30T06:52:42;14.67;;;7.07;;
3865;SDS011;1948;53.250;10.412;2023-03-30T06:55:12;8.60;;;6.80;;
3865;SDS011;1948;53.250;10.412;2023-03-30T06:57:42;9.80;;;7.37;;
3865;SDS011;1948;53.250;10.412;2023-03-30T07:00:09;9.17;;;6.43;;
3865;SDS011;1948;53.250;10.412;2023-03-30T07:02:40;11.13;;;6.97;;
3865;SDS011;1948;53.250;10.412;2023-03-30T07:05:08;9.13;;;5.90;;
3865;SDS011;1948;53.250;10.412;2023-03-30T07:07:37;6.80;;;6.13;;
3865;SDS011;1948;53.250;10.412;2023-03-30T07:10:06;7.10;;;5.80;;
3865;SDS011;1948;53.250;10.412;2023-03-30T07:12:37;15.23;;;7.20;;
3865;SDS011;1948;53.250;10.412;2023-03-30T07:15:06;6.57;;;5.77;;
3865;SDS011;1948;53.250;10.412;2023-03-30T07:17:34;7.63;;;6.33;;
3865;SDS011;1948;53.250;10.412;2023-03-30T07:20:02;14.80;;;7.00;;
3865;SDS011;1948;53.250;10.412;2023-03-30T07:22:31;10.23;;;5.70;;
3865;SDS011;1948;53.250;10.412;2023-03-30T07:24:58;21.10;;;6.60;;
3865;SDS011;1948;53.250;10.412;2023-03-30T07:27:25;8.23;;;5.80;;
3865;SDS011;1948;53.250;10.412;2023-03-30T07:29:53;9.67;;;5.67;;
3865;SDS011;1948;53.250;10.412;2023-03-30T07:32:20;6.77;;;5.57;;
3865;SDS011;1948;53.250;10.412;2023-03-30T07:34:48;6.83;;;4.53;;
3865;SDS011;1948;53.250;10.412;2023-03-30T07:37:15;5.30;;;4.90;;
3865;SDS011;1948;53.250;10.412;2023-03-30T07:39:46;9.17;;;5.43;;
3865;SDS011;1948;53.250;10.412;2023-03-30T07:42:14;6.23;;;5.10;;
3865;SDS011;1948;53.250;10.412;2023-03-30T07:44:41;12.93;;;5.10;;
3865;SDS011;1948;53.250;10.412;2023-03-30T07:47:10;9.13;;;5.37;;
3865;SDS011;1948;53.250;10.412;2023-03-30T07:49:40;10.57;;;5.27;;
3865;SDS011;1948;53.250;10.412;2023-03-30T07:52:09;29.97;;;4.53;;
3865;SDS011;1948;53.250;10.412;2023-03-30T07:54:37;8.50;;;5.80;;
3865;SDS011;1948;53.250;10.412;2023-03-30T07:57:04;6.50;;;4.90;;
3865;SDS011;1948;53.250;10.412;2023-03-30T07:59:33;6.93;;;5.47;;
3865;SDS011;1948;53.250;10.412;2023-03-30T08:02:01;10.10;;;5.23;;
3865;SDS011;1948;53.250;10.412;2023-03-30T08:04:29;7.33;;;5.40;;
3865;SDS011;1948;53.250;10.412;2023-03-30T08:06:57;8.50;;;5.03;;
3865;SDS011;1948;53.250;10.412;2023-03-30T08:09:26;5.47;;;4.97;;
3865;SDS011;1948;53.250;10.412;2023-03-30T08:11:53;11.20;;;5.83;;
3865;SDS011;1948;53.250;10.412;2023-03-30T08:14:23;10.30;;;5.90;;
3865;SDS011;1948;53.250;10.412;2023-03-30T08:16:52;5.53;;;4.57;;
3865;SDS011;1948;53.250;10.412;2023-03-30T08:19:20;6.73;;;5.27;;
3865;SDS011;1948;53.250;10.412;2023-03-30T08:21:52;11.33;;;5.07;;
3865;SDS011;1948;53.250;10.412;2023-03-30T08:24:22;10.30;;;5.50;;
3865;SDS011;1948;53.250;10.412;2023-03-30T08:26:49;12.43;;;5.47;;
3865;SDS011;1948;53.250;10.412;2023-03-30T08:29:19;13.90;;;5.97;;
3865;SDS011;1948;53.250;10.412;2023-03-30T08:31:46;18.23;;;5.50;;
3865;SDS011;1948;53.250;10.412;2023-03-30T08:34:13;5.37;;;4.87;;
3865;SDS011;1948;53.250;10.412;2023-03-30T08:36:40;6.40;;;4.80;;
3865;SDS011;1948;53.250;10.412;2023-03-30T08:39:08;5.67;;;4.60;;
3865;SDS011;1948;53.250;10.412;2023-03-30T08:41:40;9.10;;;5.07;;
3865;SDS011;1948;53.250;10.412;2023-03-30T08:44:39;9.83;;;5.67;;
3865;SDS011;1948;53.250;10.412;2023-03-30T08:47:12;17.03;;;5.57;;
3865;SDS011;1948;53.250;10.412;2023-03-30T08:49:45;13.20;;;5.00;;
3865;SDS011;1948;53.250;10.412;2023-03-30T08:52:26;6.93;;;5.60;;
3865;SDS011;1948;53.250;10.412;2023-03-30T08:54:58;7.23;;;5.70;;
3865;SDS011;1948;53.250;10.412;2023-03-30T09:00:21;11.53;;;4.83;;
3865;SDS011;1948;53.250;10.412;2023-03-30T09:03:16;20.10;;;5.60;;
3865;SDS011;1948;53.250;10.412;2023-03-30T09:06:19;14.17;;;5.70;;
3865;SDS011;1948;53.250;10.412;2023-03-30T09:09:07;13.30;;;4.90;;
3865;SDS011;1948;53.250;10.412;2023-03-30T09:11:40;15.50;;;5.10;;
3865;SDS011;1948;53.250;10.412;2023-03-30T09:14:11;13.33;;;5.13;;
3865;SDS011;1948;53.250;10.412;2023-03-30T09:17:11;18.90;;;4.77;;
3865;SDS011;1948;53.250;10.412;2023-03-30T09:22:17;7.83;;;4.77;;
3865;SDS011;1948;53.250;10.412;2023-03-30T09:24:45;7.27;;;4.40;;
3865;SDS011;1948;53.250;10.412;2023-03-30T09:27:20;15.13;;;4.97;;
3865;SDS011;1948;53.250;10.412;2023-03-30T09:30:21;11.97;;;4.93;;
3865;SDS011;1948;53.250;10.412;2023-03-30T09:33:44;4.90;;;4.10;;
3865;SDS011;1948;53.250;10.412;2023-03-30T09:38:47;8.83;;;3.73;;
3865;SDS011;1948;53.250;10.412;2023-03-30T09:44:32;7.90;;;3.90;;
3865;SDS011;1948;53.250;10.412;2023-03-30T09:50:05;4.47;;;3.43;;
3865;SDS011;1948;53.250;10.412;2023-03-30T09:55:28;10.77;;;3.00;;
3865;SDS011;1948;53.250;10.412;2023-03-30T10:00:40;5.00;;;3.20;;
3865;SDS011;1948;53.250;10.412;2023-03-30T10:03:12;6.43;;;3.27;;
3865;SDS011;1948;53.250;10.412;2023-03-30T10:06:33;4.93;;;2.80;;
3865;SDS011;1948;53.250;10.412;2023-03-30T10:08:42;9.37;;;3.20;;
3865;SDS011;1948;53.250;10.412;2023-03-30T10:13:56;4.27;;;2.97;;
3865;SDS011;1948;53.250;10.412;2023-03-30T10:16:25;3.03;;;2.73;;
3865;SDS011;1948;53.250;10.412;2023-03-30T10:19:03;12.03;;;3.30;;
3865;SDS011;1948;53.250;10.412;2023-03-30T10:21:44;10.83;;;3.60;;
3865;SDS011;1948;53.250;10.412;2023-03-30T10:24:28;5.77;;;2.93;;
3865;SDS011;1948;53.250;10.412;2023-03-30T10:29:43;7.97;;;4.17;;
3865;SDS011;1948;53.250;10.412;2023-03-30T10:32:26;12.23;;;3.63;;
3865;SDS011;1948;53.250;10.412;2023-03-30T10:34:57;8.87;;;2.63;;
3865;SDS011;1948;53.250;10.412;2023-03-30T10:37:34;9.87;;;3.33;;
3865;SDS011;1948;53.250;10.412;2023-03-30T10:40:13;8.17;;;2.60;;
3865;SDS011;1948;53.250;10.412;2023-03-30T10:42:46;7.70;;;3.20;;
3865;SDS011;1948;53.250;10.412;2023-03-30T10:45:25;4.50;;;2.93;;
3865;SDS011;1948;53.250;10.412;2023-03-30T10:54:49;2.77;;;2.63;;
3865;SDS011;1948;53.250;10.412;2023-03-30T11:03:16;4.30;;;2.30;;
3865;SDS011;1948;53.250;10.412;2023-03-30T11:06:16;3.87;;;2.43;;
3865;SDS011;1948;53.250;10.412;2023-03-30T11:08:51;6.03;;;3.00;;
3865;SDS011;1948;53.250;10.412;2023-03-30T11:11:30;4.13;;;2.60;;
3865;SDS011;1948;53.250;10.412;2023-03-30T11:14:20;3.20;;;2.00;;
3865;SDS011;1948;53.250;10.412;2023-03-30T11:19:55;3.47;;;2.50;;
3865;SDS011;1948;53.250;10.412;2023-03-30T11:22:35;9.93;;;3.03;;
3865;SDS011;1948;53.250;10.412;2023-03-30T11:25:56;8.27;;;2.43;;
3865;SDS011;1948;53.250;10.412;2023-03-30T11:31:28;2.70;;;2.00;;
3865;SDS011;1948;53.250;10.412;2023-03-30T11:34:20;8.73;;;1.87;;
3865;SDS011;1948;53.250;10.412;2023-03-30T11:37:22;9.97;;;2.30;;
3865;SDS011;1948;53.250;10.412;2023-03-30T11:40:32;4.30;;;1.90;;
3865;SDS011;1948;53.250;10.412;2023-03-30T11:42:54;3.70;;;1.93;;
3865;SDS011;1948;53.250;10.412;2023-03-30T11:48:05;6.63;;;2.00;;
3865;SDS011;1948;53.250;10.412;2023-03-30T11:53:31;6.17;;;2.50;;
3865;SDS011;1948;53.250;10.412;2023-03-30T11:59:33;4.00;;;1.70;;
3865;SDS011;1948;53.250;10.412;2023-03-30T12:02:38;4.27;;;1.90;;
3865;SDS011;1948;53.250;10.412;2023-03-30T12:05:28;6.63;;;2.40;;
3865;SDS011;1948;53.250;10.412;2023-03-30T12:10:54;6.40;;;2.10;;
3865;SDS011;1948;53.250;10.412;2023-03-30T12:13:29;2.70;;;1.67;;
3865;SDS011;1948;53.250;10.412;2023-03-30T12:16:19;4.40;;;1.90;;
3865;SDS011;1948;53.250;10.412;2023-03-30T12:21:51;1.93;;;1.37;;
3865;SDS011;1948;53.250;10.412;2023-03-30T12:27:11;6.40;;;2.60;;
3865;SDS011;1948;53.250;10.412;2023-03-30T12:29:43;2.90;;;1.73;;
3865;SDS011;1948;53.250;10.412;2023-03-30T12:32:29;3.13;;;1.90;;
3865;SDS011;1948;53.250;10.412;2023-03-30T12:34:56;13.67;;;2.40;;
3865;SDS011;1948;53.250;10.412;2023-03-30T12:37:33;10.93;;;1.77;;
3865;SDS011;1948;53.250;10.412;2023-03-30T12:40:16;2.97;;;2.27;;
3865;SDS011;1948;53.250;10.412;2023-03-30T12:42:51;5.33;;;2.03;;
3865;SDS011;1948;53.250;10.412;2023-03-30T12:57:18;1.97;;;1.63;;
3865;SDS011;1948;53.250;10.412;2023-03-30T13:12:35;8.43;;;2.20;;
3865;SDS011;1948;53.250;10.412;2023-03-30T13:18:00;7.73;;;3.20;;
3865;SDS011;1948;53.250;10.412;2023-03-30T13:21:05;10.00;;;2.97;;
3865;SDS011;1948;53.250;10.412;2023-03-30T13:23:48;8.87;;;2.87;;
3865;SDS011;1948;53.250;10.412;2023-03-30T13:26:27;10.77;;;3.00;;
3865;SDS011;1948;53.250;10.412;2023-03-30T13:29:11;7.40;;;2.90;;
3865;SDS011;1948;53.250;10.412;2023-03-30T13:38:06;7.43;;;2.90;;
3865;SDS011;1948;53.250;10.412;2023-03-30T13:49:59;9.73;;;2.53;;
3865;SDS011;1948;53.250;10.412;2023-03-30T13:52:38;14.40;;;3.13;;
3865;SDS011;1948;53.250;10.412;2023-03-30T13:55:31;13.60;;;2.80;;
3865;SDS011;1948;53.250;10.412;2023-03-30T13:58:08;12.93;;;3.27;;
3865;SDS011;1948;53.250;10.412;2023-03-30T14:00:51;14.43;;;2.83;;
3865;SDS011;1948;53.250;10.412;2023-03-30T14:03:33;8.17;;;2.90;;
3865;SDS011;1948;53.250;10.412;2023-03-30T14:08:44;13.23;;;3.50;;
3865;SDS011;1948;53.250;10.412;2023-03-30T14:11:16;14.30;;;3.80;;
3865;SDS011;1948;53.250;10.412;2023-03-30T14:13:50;9.30;;;2.60;;
3865;SDS011;1948;53.250;10.412;2023-03-30T14:16:20;8.93;;;2.83;;
3865;SDS011;1948;53.250;10.412;2023-03-30T14:19:02;13.23;;;3.47;;
3865;SDS011;1948;53.250;10.412;2023-03-30T14:22:00;11.00;;;3.40;;
3865;SDS011;1948;53.250;10.412;2023-03-30T14:24:39;19.53;;;2.90;;
3865;SDS011;1948;53.250;10.412;2023-03-30T14:27:36;15.53;;;2.70;;
3865;SDS011;1948;53.250;10.412;2023-03-30T14:30:26;15.37;;;3.97;;
3865;SDS011;1948;53.250;10.412;2023-03-30T14:33:03;24.67;;;3.77;;
3865;SDS011;1948;53.250;10.412;2023-03-30T14:35:38;12.93;;;3.00;;
3865;SDS011;1948;53.250;10.412;2023-03-30T14:38:13;9.03;;;2.80;;
3865;SDS011;1948;53.250;10.412;2023-03-30T14:40:52;12.00;;;2.80;;
3865;SDS011;1948;53.250;10.412;2023-03-30T14:43:24;13.90;;;6.63;;
3865;SDS011;1948;53.250;10.412;2023-03-30T14:45:56;11.10;;;2.80;;
3865;SDS011;1948;53.250;10.412;2023-03-30T14:48:37;11.23;;;3.40;;
3865;SDS011;1948;53.250;10.412;2023-03-30T14:51:21;7.20;;;3.20;;
3865;SDS011;1948;53.250;10.412;2023-03-30T14:53:54;6.97;;;2.03;;
3865;SDS011;1948;53.250;10.412;2023-03-30T14:56:23;9.50;;;2.50;;
3865;SDS011;1948;53.250;10.412;2023-03-30T14:58:53;9.70;;;2.77;;
3865;SDS011;1948;53.250;10.412;2023-03-30T15:01:29;9.50;;;2.67;;
3865;SDS011;1948;53.250;10.412;2023-03-30T15:04:07;9.70;;;2.50;;
3865;SDS011;1948;53.250;10.412;2023-03-30T15:06:41;7.70;;;2.33;;
3865;SDS011;1948;53.250;10.412;2023-03-30T15:09:18;7.80;;;2.43;;
3865;SDS011;1948;53.250;10.412;2023-03-30T15:11:50;6.70;;;2.20;;
3865;SDS011;1948;53.250;10.412;2023-03-30T15:14:30;12.30;;;3.13;;
3865;SDS011;1948;53.250;10.412;2023-03-30T15:17:10;17.97;;;2.70;;
3865;SDS011;1948;53.250;10.412;2023-03-30T15:19:48;5.00;;;2.23;;
3865;SDS011;1948;53.250;10.412;2023-03-30T15:22:35;9.47;;;2.40;;
3865;SDS011;1948;53.250;10.412;2023-03-30T15:25:08;5.23;;;2.20;;
3865;SDS011;1948;53.250;10.412;2023-03-30T15:28:00;8.60;;;2.50;;
3865;SDS011;1948;53.250;10.412;2023-03-30T15:30:37;10.40;;;2.20;;
3865;SDS011;1948;53.250;10.412;2023-03-30T15:33:19;12.73;;;2.00;;
3865;SDS011;1948;53.250;10.412;2023-03-30T15:35:55;3.50;;;1.83;;
3865;SDS011;1948;53.250;10.412;2023-03-30T15:38:44;10.73;;;2.20;;
3865;SDS011;1948;53.250;10.412;2023-03-30T15:41:17;6.10;;;2.10;;
3865;SDS011;1948;53.250;10.412;2023-03-30T15:44:09;11.87;;;2.47;;
3865;SDS011;1948;53.250;10.412;2023-03-30T15:46:41;7.80;;;2.43;;
3865;SDS011;1948;53.250;10.412;2023-03-30T15:49:19;11.07;;;2.47;;
3865;SDS011;1948;53.250;10.412;2023-03-30T15:51:59;5.40;;;2.30;;
3865;SDS011;1948;53.250;10.412;2023-03-30T15:54:42;4.60;;;3.00;;
3865;SDS011;1948;53.250;10.412;2023-03-30T15:57:18;7.00;;;2.40;;
3865;SDS011;1948;53.250;10.412;2023-03-30T15:59:55;18.03;;;2.60;;
3865;SDS011;1948;53.250;10.412;2023-03-30T16:05:01;9.83;;;2.50;;
3865;SDS011;1948;53.250;10.412;2023-03-30T16:07:32;11.30;;;3.17;;
3865;SDS011;1948;53.250;10.412;2023-03-30T16:10:03;7.47;;;3.00;;
3865;SDS011;1948;53.250;10.412;2023-03-30T16:12:31;11.73;;;2.30;;
3865;SDS011;1948;53.250;10.412;2023-03-30T16:14:59;8.80;;;2.67;;
3865;SDS011;1948;53.250;10.412;2023-03-30T16:17:31;15.00;;;3.57;;
3865;SDS011;1948;53.250;10.412;2023-03-30T16:20:00;7.37;;;2.60;;
3865;SDS011;1948;53.250;10.412;2023-03-30T16:22:30;13.27;;;3.57;;
3865;SDS011;1948;53.250;10.412;2023-03-30T16:24:57;8.53;;;2.80;;
3865;SDS011;1948;53.250;10.412;2023-03-30T16:27:24;12.03;;;3.60;;
3865;SDS011;1948;53.250;10.412;2023-03-30T16:29:53;9.67;;;3.33;;
3865;SDS011;1948;53.250;10.412;2023-03-30T16:32:22;15.13;;;3.20;;
3865;SDS011;1948;53.250;10.412;2023-03-30T16:35:00;10.13;;;3.27;;
3865;SDS011;1948;53.250;10.412;2023-03-30T16:37:27;9.80;;;2.70;;
3865;SDS011;1948;53.250;10.412;2023-03-30T16:39:56;6.20;;;2.57;;
3865;SDS011;1948;53.250;10.412;2023-03-30T16:42:24;14.83;;;2.60;;
3865;SDS011;1948;53.250;10.412;2023-03-30T16:44:52;11.00;;;2.97;;
3865;SDS011;1948;53.250;10.412;2023-03-30T16:47:19;13.37;;;2.57;;
3865;SDS011;1948;53.250;10.412;2023-03-30T16:49:47;7.57;;;2.53;;
3865;SDS011;1948;53.250;10.412;2023-03-30T16:52:16;9.60;;;2.80;;
3865;SDS011;1948;53.250;10.412;2023-03-30T16:54:43;9.90;;;2.90;;
3865;SDS011;1948;53.250;10.412;2023-03-30T16:57:10;12.03;;;2.27;;
3865;SDS011;1948;53.250;10.412;2023-03-30T16:59:40;9.73;;;2.63;;
3865;SDS011;1948;53.250;10.412;2023-03-30T17:02:09;9.83;;;2.50;;
3865;SDS011;1948;53.250;10.412;2023-03-30T17:04:43;7.33;;;2.67;;
3865;SDS011;1948;53.250;10.412;2023-03-30T17:07:15;16.00;;;3.60;;
3865;SDS011;1948;53.250;10.412;2023-03-30T17:09:41;8.57;;;2.47;;
3865;SDS011;1948;53.250;10.412;2023-03-30T17:12:08;9.07;;;2.43;;
3865;SDS011;1948;53.250;10.412;2023-03-30T17:14:38;9.80;;;2.33;;
3865;SDS011;1948;53.250;10.412;2023-03-30T17:17:08;6.13;;;2.20;;
3865;SDS011;1948;53.250;10.412;2023-03-30T17:19:35;11.27;;;2.37;;
3865;SDS011;1948;53.250;10.412;2023-03-30T17:22:02;9.00;;;2.97;;
3865;SDS011;1948;53.250;10.412;2023-03-30T17:24:31;9.20;;;2.90;;
3865;SDS011;1948;53.250;10.412;2023-03-30T17:26:58;10.57;;;2.93;;
3865;SDS011;1948;53.250;10.412;2023-03-30T17:29:26;10.20;;;2.90;;
3865;SDS011;1948;53.250;10.412;2023-03-30T17:31:53;22.93;;;3.47;;
3865;SDS011;1948;53.250;10.412;2023-03-30T17:34:22;14.90;;;2.80;;
3865;SDS011;1948;53.250;10.412;2023-03-30T17:36:49;13.90;;;3.00;;
3865;SDS011;1948;53.250;10.412;2023-03-30T17:39:16;8.13;;;2.43;;
3865;SDS011;1948;53.250;10.412;2023-03-30T17:41:46;13.00;;;3.23;;
3865;SDS011;1948;53.250;10.412;2023-03-30T17:44:13;7.57;;;2.80;;
3865;SDS011;1948;53.250;10.412;2023-03-30T17:46:42;12.53;;;2.77;;
3865;SDS011;1948;53.250;10.412;2023-03-30T17:49:13;10.47;;;2.87;;
3865;SDS011;1948;53.250;10.412;2023-03-30T17:51:42;12.83;;;2.40;;
3865;SDS011;1948;53.250;10.412;2023-03-30T17:54:09;26.93;;;3.27;;
3865;SDS011;1948;53.250;10.412;2023-03-30T17:56:36;8.80;;;3.30;;
3865;SDS011;1948;53.250;10.412;2023-03-30T17:59:04;10.20;;;3.20;;
3865;SDS011;1948;53.250;10.412;2023-03-30T18:01:38;12.93;;;3.10;;